sensor_id;sensor_type;location;lat;lon;timestamp;P1;durP1;ratioP1;P2;durP2;ratioP2
59756;SDS011;45631;51.962;5.974;2024-03-23T00:54:41;21.88;;;7.47;;
59756;SDS011;45631;51.962;5.974;2024-03-23T00:57:11;21.90;;;7.05;;
59756;SDS011;45631;51.962;5.974;2024-03-23T00:59:38;17.55;;;7.22;;
59756;SDS011;45631;51.962;5.974;2024-03-23T01:02:04;19.30;;;7.05;;
59756;SDS011;45631;51.962;5.974;2024-03-23T01:04:31;20.42;;;6.82;;
59756;SDS011;45631;51.962;5.974;2024-03-23T01:06:57;17.10;;;6.70;;
59756;SDS011;45631;51.962;5.974;2024-03-23T01:09:24;26.38;;;7.90;;
59756;SDS011;45631;51.962;5.974;2024-03-23T01:11:53;22.67;;;7.47;;
59756;SDS011;45631;51.962;5.974;2024-03-23T01:14:20;19.73;;;6.90;;
59756;SDS011;45631;51.962;5.974;2024-03-23T01:16:46;24.67;;;7.45;;
59756;SDS011;45631;51.962;5.974;2024-03-23T01:19:13;17.40;;;6.50;;
59756;SDS011;45631;51.962;5.974;2024-03-23T01:21:40;16.80;;;6.88;;
59756;SDS011;45631;51.962;5.974;2024-03-23T01:24:08;24.02;;;7.03;;
59756;SDS011;45631;51.962;5.974;2024-03-23T01:26:36;19.00;;;6.53;;
59756;SDS011;45631;51.962;5.974;2024-03-23T01:29:05;17.08;;;6.32;;
59756;SDS011;45631;51.962;5.974;2024-03-23T01:31:31;18.42;;;7.47;;
59756;SDS011;45631;51.962;5.974;2024-03-23T01:34:01;19.48;;;6.88;;
59756;SDS011;45631;51.962;5.974;2024-03-23T01:36:28;19.02;;;5.97;;
59756;SDS011;45631;51.962;5.974;2024-03-23T01:38:55;19.88;;;6.55;;
59756;SDS011;45631;51.962;5.974;2024-03-23T01:41:22;15.85;;;5.93;;
59756;SDS011;45631;51.962;5.974;2024-03-23T01:43:51;17.05;;;6.03;;
59756;SDS011;45631;51.962;5.974;2024-03-23T01:46:18;14.32;;;6.15;;
59756;SDS011;45631;51.962;5.974;2024-03-23T01:48:45;19.30;;;6.70;;
59756;SDS011;45631;51.962;5.974;2024-03-23T01:51:12;17.95;;;6.10;;
59756;SDS011;45631;51.962;5.974;2024-03-23T01:53:43;18.77;;;6.50;;
59756;SDS011;45631;51.962;5.974;2024-03-23T01:56:09;20.63;;;7.20;;
59756;SDS011;45631;51.962;5.974;2024-03-23T01:58:38;21.40;;;7.40;;
59756;SDS011;45631;51.962;5.974;2024-03-23T02:01:05;17.55;;;6.97;;
59756;SDS011;45631;51.962;5.974;2024-03-23T02:03:36;22.58;;;8.27;;
59756;SDS011;45631;51.962;5.974;2024-03-23T02:06:02;21.15;;;6.47;;
59756;SDS011;45631;51.962;5.974;2024-03-23T02:08:32;16.77;;;6.10;;
59756;SDS011;45631;51.962;5.974;2024-03-23T02:10:59;14.52;;;6.50;;
59756;SDS011;45631;51.962;5.974;2024-03-23T02:13:27;12.95;;;5.47;;
59756;SDS011;45631;51.962;5.974;2024-03-23T02:15:56;15.35;;;5.47;;
59756;SDS011;45631;51.962;5.974;2024-03-23T02:18:25;19.98;;;5.85;;
59756;SDS011;45631;51.962;5.974;2024-03-23T02:20:52;14.32;;;5.68;;
59756;SDS011;45631;51.962;5.974;2024-03-23T02:23:21;19.10;;;6.13;;
59756;SDS011;45631;51.962;5.974;2024-03-23T02:25:47;15.63;;;6.63;;
59756;SDS011;45631;51.962;5.974;2024-03-23T02:28:14;20.17;;;6.13;;
59756;SDS011;45631;51.962;5.974;2024-03-23T02:30:40;18.00;;;6.05;;
59756;SDS011;45631;51.962;5.974;2024-03-23T02:33:08;17.48;;;6.22;;
59756;SDS011;45631;51.962;5.974;2024-03-23T02:35:34;19.98;;;7.05;;
59756;SDS011;45631;51.962;5.974;2024-03-23T02:38:01;20.75;;;7.20;;
59756;SDS011;45631;51.962;5.974;2024-03-23T02:40:28;15.02;;;6.75;;
59756;SDS011;45631;51.962;5.974;2024-03-23T02:42:56;20.48;;;7.78;;
59756;SDS011;45631;51.962;5.974;2024-03-23T02:45:22;20.75;;;7.05;;
59756;SDS011;45631;51.962;5.974;2024-03-23T02:47:52;19.30;;;7.75;;
59756;SDS011;45631;51.962;5.974;2024-03-23T02:50:18;21.55;;;8.05;;
59756;SDS011;45631;51.962;5.974;2024-03-23T02:52:45;21.00;;;7.80;;
59756;SDS011;45631;51.962;5.974;2024-03-23T02:55:11;22.23;;;8.50;;
59756;SDS011;45631;51.962;5.974;2024-03-23T02:57:40;20.75;;;7.93;;
59756;SDS011;45631;51.962;5.974;2024-03-23T03:00:07;21.50;;;8.05;;
59756;SDS011;45631;51.962;5.974;2024-03-23T03:02:36;18.67;;;7.70;;
59756;SDS011;45631;51.962;5.974;2024-03-23T03:05:03;22.45;;;8.35;;
59756;SDS011;45631;51.962;5.974;2024-03-23T03:07:31;21.38;;;7.80;;
59756;SDS011;45631;51.962;5.974;2024-03-23T03:09:57;23.20;;;8.05;;
59756;SDS011;45631;51.962;5.974;2024-03-23T03:12:24;17.95;;;8.13;;
59756;SDS011;45631;51.962;5.974;2024-03-23T03:14:52;23.00;;;8.38;;
59756;SDS011;45631;51.962;5.974;2024-03-23T03:17:19;20.38;;;8.68;;
59756;SDS011;45631;51.962;5.974;2024-03-23T03:19:45;25.27;;;8.48;;
59756;SDS011;45631;51.962;5.974;2024-03-23T03:22:12;20.42;;;8.32;;
59756;SDS011;45631;51.962;5.974;2024-03-23T03:24:38;20.63;;;8.52;;
59756;SDS011;45631;51.962;5.974;2024-03-23T03:27:05;26.27;;;8.25;;
59756;SDS011;45631;51.962;5.974;2024-03-23T03:29:32;20.58;;;8.40;;
59756;SDS011;45631;51.962;5.974;2024-03-23T03:32:03;18.88;;;8.25;;
59756;SDS011;45631;51.962;5.974;2024-03-23T03:34:29;23.42;;;9.20;;
59756;SDS011;45631;51.962;5.974;2024-03-23T03:36:57;18.70;;;8.60;;
59756;SDS011;45631;51.962;5.974;2024-03-23T03:39:28;27.27;;;8.75;;
59756;SDS011;45631;51.962;5.974;2024-03-23T03:41:55;21.40;;;9.55;;
59756;SDS011;45631;51.962;5.974;2024-03-23T03:44:21;26.33;;;9.68;;
59756;SDS011;45631;51.962;5.974;2024-03-23T03:46:48;23.63;;;9.02;;
59756;SDS011;45631;51.962;5.974;2024-03-23T03:49:16;24.45;;;9.15;;
59756;SDS011;45631;51.962;5.974;2024-03-23T03:51:43;22.55;;;9.63;;
59756;SDS011;45631;51.962;5.974;2024-03-23T03:54:11;23.15;;;9.73;;
59756;SDS011;45631;51.962;5.974;2024-03-23T03:56:40;24.52;;;9.57;;
59756;SDS011;45631;51.962;5.974;2024-03-23T03:59:06;21.25;;;9.93;;
59756;SDS011;45631;51.962;5.974;2024-03-23T04:01:33;25.75;;;10.45;;
59756;SDS011;45631;51.962;5.974;2024-03-23T04:03:59;22.08;;;9.98;;
59756;SDS011;45631;51.962;5.974;2024-03-23T04:06:28;25.98;;;9.77;;
59756;SDS011;45631;51.962;5.974;2024-03-23T04:08:54;24.55;;;9.73;;
59756;SDS011;45631;51.962;5.974;2024-03-23T04:11:21;20.95;;;9.65;;
59756;SDS011;45631;51.962;5.974;2024-03-23T04:13:47;28.88;;;11.18;;
59756;SDS011;45631;51.962;5.974;2024-03-23T04:16:24;22.38;;;10.68;;
59756;SDS011;45631;51.962;5.974;2024-03-23T04:18:50;25.13;;;10.63;;
59756;SDS011;45631;51.962;5.974;2024-03-23T04:21:17;29.30;;;10.55;;
59756;SDS011;45631;51.962;5.974;2024-03-23T04:23:45;26.48;;;10.85;;
59756;SDS011;45631;51.962;5.974;2024-03-23T04:26:12;21.50;;;9.55;;
59756;SDS011;45631;51.962;5.974;2024-03-23T04:28:38;24.15;;;9.55;;
59756;SDS011;45631;51.962;5.974;2024-03-23T04:31:05;28.23;;;10.90;;
59756;SDS011;45631;51.962;5.974;2024-03-23T04:33:31;22.98;;;10.48;;
59756;SDS011;45631;51.962;5.974;2024-03-23T04:35:58;25.08;;;10.85;;
59756;SDS011;45631;51.962;5.974;2024-03-23T04:38:25;20.60;;;9.70;;
59756;SDS011;45631;51.962;5.974;2024-03-23T04:40:56;30.38;;;10.05;;
59756;SDS011;45631;51.962;5.974;2024-03-23T04:43:25;27.65;;;9.68;;
59756;SDS011;45631;51.962;5.974;2024-03-23T04:45:52;23.77;;;9.10;;
59756;SDS011;45631;51.962;5.974;2024-03-23T04:48:20;23.60;;;9.55;;
59756;SDS011;45631;51.962;5.974;2024-03-23T04:50:48;19.75;;;8.77;;
59756;SDS011;45631;51.962;5.974;2024-03-23T04:53:14;21.60;;;8.25;;
59756;SDS011;45631;51.962;5.974;2024-03-23T04:55:42;22.45;;;7.95;;
59756;SDS011;45631;51.962;5.974;2024-03-23T04:58:10;22.20;;;8.27;;
59756;SDS011;45631;51.962;5.974;2024-03-23T05:00:37;20.85;;;7.75;;
59756;SDS011;45631;51.962;5.974;2024-03-23T05:03:04;24.60;;;7.78;;
59756;SDS011;45631;51.962;5.974;2024-03-23T05:05:31;19.95;;;7.22;;
59756;SDS011;45631;51.962;5.974;2024-03-23T05:07:57;15.60;;;6.13;;
59756;SDS011;45631;51.962;5.974;2024-03-23T05:10:25;16.25;;;6.80;;
59756;SDS011;45631;51.962;5.974;2024-03-23T05:12:51;19.63;;;6.30;;
59756;SDS011;45631;51.962;5.974;2024-03-23T05:15:19;21.17;;;7.15;;
59756;SDS011;45631;51.962;5.974;2024-03-23T05:17:46;20.88;;;6.90;;
59756;SDS011;45631;51.962;5.974;2024-03-23T05:20:13;19.30;;;6.20;;
59756;SDS011;45631;51.962;5.974;2024-03-23T05:22:39;18.75;;;5.80;;
59756;SDS011;45631;51.962;5.974;2024-03-23T05:25:06;20.52;;;6.65;;
59756;SDS011;45631;51.962;5.974;2024-03-23T05:27:33;18.15;;;5.80;;
59756;SDS011;45631;51.962;5.974;2024-03-23T05:30:00;19.88;;;6.72;;
59756;SDS011;45631;51.962;5.974;2024-03-23T05:32:28;20.13;;;5.88;;
59756;SDS011;45631;51.962;5.974;2024-03-23T05:34:55;22.48;;;5.35;;
59756;SDS011;45631;51.962;5.974;2024-03-23T05:37:22;17.17;;;5.25;;
59756;SDS011;45631;51.962;5.974;2024-03-23T05:39:49;18.95;;;5.20;;
59756;SDS011;45631;51.962;5.974;2024-03-23T05:42:15;14.70;;;4.72;;
59756;SDS011;45631;51.962;5.974;2024-03-23T05:44:43;16.85;;;6.00;;
59756;SDS011;45631;51.962;5.974;2024-03-23T05:47:10;16.13;;;5.03;;
59756;SDS011;45631;51.962;5.974;2024-03-23T05:49:41;17.58;;;4.78;;
59756;SDS011;45631;51.962;5.974;2024-03-23T05:52:07;16.33;;;4.80;;
59756;SDS011;45631;51.962;5.974;2024-03-23T05:54:35;20.35;;;5.43;;
59756;SDS011;45631;51.962;5.974;2024-03-23T05:57:04;16.98;;;5.05;;
59756;SDS011;45631;51.962;5.974;2024-03-23T05:59:33;19.80;;;5.80;;
59756;SDS011;45631;51.962;5.974;2024-03-23T06:01:59;16.70;;;4.88;;
59756;SDS011;45631;51.962;5.974;2024-03-23T06:04:26;13.48;;;5.25;;
59756;SDS011;45631;51.962;5.974;2024-03-23T06:06:53;18.00;;;5.80;;
59756;SDS011;45631;51.962;5.974;2024-03-23T06:09:20;15.10;;;5.53;;
59756;SDS011;45631;51.962;5.974;2024-03-23T06:11:49;17.48;;;5.10;;
59756;SDS011;45631;51.962;5.974;2024-03-23T06:14:16;15.45;;;5.28;;
59756;SDS011;45631;51.962;5.974;2024-03-23T06:16:42;22.58;;;5.43;;
59756;SDS011;45631;51.962;5.974;2024-03-23T06:19:09;14.00;;;5.05;;
59756;SDS011;45631;51.962;5.974;2024-03-23T06:21:41;19.05;;;5.35;;
59756;SDS011;45631;51.962;5.974;2024-03-23T06:24:11;17.45;;;5.20;;
59756;SDS011;45631;51.962;5.974;2024-03-23T06:26:38;13.00;;;4.63;;
59756;SDS011;45631;51.962;5.974;2024-03-23T06:29:05;14.25;;;5.20;;
59756;SDS011;45631;51.962;5.974;2024-03-23T06:31:31;17.98;;;4.70;;
59756;SDS011;45631;51.962;5.974;2024-03-23T06:33:58;16.15;;;4.63;;
59756;SDS011;45631;51.962;5.974;2024-03-23T06:36:25;18.77;;;4.88;;
59756;SDS011;45631;51.962;5.974;2024-03-23T06:38:52;18.10;;;5.13;;
59756;SDS011;45631;51.962;5.974;2024-03-23T06:41:20;17.50;;;5.13;;
59756;SDS011;45631;51.962;5.974;2024-03-23T06:43:47;13.77;;;4.22;;
59756;SDS011;45631;51.962;5.974;2024-03-23T06:46:13;16.15;;;4.03;;
59756;SDS011;45631;51.962;5.974;2024-03-23T06:48:40;15.15;;;4.43;;
59756;SDS011;45631;51.962;5.974;2024-03-23T06:51:06;14.88;;;4.13;;
59756;SDS011;45631;51.962;5.974;2024-03-23T06:53:34;15.55;;;4.10;;
59756;SDS011;45631;51.962;5.974;2024-03-23T06:56:00;16.02;;;3.75;;
59756;SDS011;45631;51.962;5.974;2024-03-23T06:58:29;15.18;;;4.05;;
59756;SDS011;45631;51.962;5.974;2024-03-23T07:00:55;18.00;;;3.67;;
59756;SDS011;45631;51.962;5.974;2024-03-23T07:03:22;15.82;;;4.20;;
59756;SDS011;45631;51.962;5.974;2024-03-23T07:05:49;17.17;;;4.15;;
59756;SDS011;45631;51.962;5.974;2024-03-23T07:08:16;12.48;;;3.72;;
59756;SDS011;45631;51.962;5.974;2024-03-23T07:10:49;17.48;;;4.45;;
59756;SDS011;45631;51.962;5.974;2024-03-23T07:13:16;17.48;;;4.32;;
59756;SDS011;45631;51.962;5.974;2024-03-23T07:15:44;18.75;;;4.57;;
59756;SDS011;45631;51.962;5.974;2024-03-23T07:18:18;14.65;;;4.05;;
59756;SDS011;45631;51.962;5.974;2024-03-23T07:20:51;17.08;;;4.00;;
59756;SDS011;45631;51.962;5.974;2024-03-23T07:23:19;14.63;;;3.70;;
59756;SDS011;45631;51.962;5.974;2024-03-23T07:25:56;13.50;;;4.05;;
59756;SDS011;45631;51.962;5.974;2024-03-23T07:28:23;16.75;;;3.83;;
59756;SDS011;45631;51.962;5.974;2024-03-23T07:31:00;16.20;;;3.67;;
59756;SDS011;45631;51.962;5.974;2024-03-23T07:33:31;11.30;;;3.83;;
59756;SDS011;45631;51.962;5.974;2024-03-23T07:35:58;13.43;;;3.63;;
59756;SDS011;45631;51.962;5.974;2024-03-23T07:38:26;12.05;;;3.45;;
59756;SDS011;45631;51.962;5.974;2024-03-23T07:41:02;12.65;;;3.67;;
59756;SDS011;45631;51.962;5.974;2024-03-23T07:43:29;12.32;;;2.80;;
59756;SDS011;45631;51.962;5.974;2024-03-23T07:45:55;15.93;;;3.25;;
59756;SDS011;45631;51.962;5.974;2024-03-23T07:48:24;14.38;;;3.65;;
59756;SDS011;45631;51.962;5.974;2024-03-23T07:50:57;16.50;;;3.53;;
59756;SDS011;45631;51.962;5.974;2024-03-23T07:55:55;11.55;;;3.25;;
59756;SDS011;45631;51.962;5.974;2024-03-23T07:58:23;9.82;;;3.30;;
59756;SDS011;45631;51.962;5.974;2024-03-23T08:00:49;14.38;;;3.63;;
59756;SDS011;45631;51.962;5.974;2024-03-23T08:03:17;14.20;;;3.67;;
59756;SDS011;45631;51.962;5.974;2024-03-23T08:05:44;13.35;;;3.30;;
59756;SDS011;45631;51.962;5.974;2024-03-23T08:08:12;10.52;;;3.22;;
59756;SDS011;45631;51.962;5.974;2024-03-23T08:10:46;14.25;;;3.63;;
59756;SDS011;45631;51.962;5.974;2024-03-23T08:13:14;13.57;;;3.40;;
59756;SDS011;45631;51.962;5.974;2024-03-23T08:15:42;14.52;;;2.85;;
59756;SDS011;45631;51.962;5.974;2024-03-23T08:18:10;13.30;;;3.80;;
59756;SDS011;45631;51.962;5.974;2024-03-23T08:20:38;12.30;;;3.33;;
59756;SDS011;45631;51.962;5.974;2024-03-23T08:23:07;11.98;;;3.15;;
59756;SDS011;45631;51.962;5.974;2024-03-23T08:25:33;14.20;;;3.38;;
59756;SDS011;45631;51.962;5.974;2024-03-23T08:28:00;13.48;;;3.20;;
59756;SDS011;45631;51.962;5.974;2024-03-23T08:30:27;9.85;;;2.75;;
59756;SDS011;45631;51.962;5.974;2024-03-23T08:32:55;11.27;;;3.30;;
59756;SDS011;45631;51.962;5.974;2024-03-23T08:35:21;12.85;;;2.78;;
59756;SDS011;45631;51.962;5.974;2024-03-23T08:37:48;10.43;;;3.20;;
59756;SDS011;45631;51.962;5.974;2024-03-23T08:40:15;9.50;;;2.70;;
59756;SDS011;45631;51.962;5.974;2024-03-23T08:42:43;10.93;;;2.60;;
59756;SDS011;45631;51.962;5.974;2024-03-23T08:45:09;13.15;;;2.80;;
59756;SDS011;45631;51.962;5.974;2024-03-23T08:47:36;12.75;;;2.75;;
59756;SDS011;45631;51.962;5.974;2024-03-23T08:50:05;9.93;;;2.75;;
59756;SDS011;45631;51.962;5.974;2024-03-23T08:52:33;10.90;;;2.30;;
59756;SDS011;45631;51.962;5.974;2024-03-23T08:54:59;10.68;;;2.60;;
59756;SDS011;45631;51.962;5.974;2024-03-23T08:57:28;9.48;;;2.42;;
59756;SDS011;45631;51.962;5.974;2024-03-23T08:59:54;13.73;;;2.67;;
59756;SDS011;45631;51.962;5.974;2024-03-23T09:02:21;13.73;;;2.38;;
59756;SDS011;45631;51.962;5.974;2024-03-23T09:04:47;12.20;;;2.35;;
59756;SDS011;45631;51.962;5.974;2024-03-23T09:07:17;8.18;;;1.83;;
59756;SDS011;45631;51.962;5.974;2024-03-23T09:09:43;10.15;;;2.45;;
59756;SDS011;45631;51.962;5.974;2024-03-23T09:12:12;10.93;;;2.38;;
59756;SDS011;45631;51.962;5.974;2024-03-23T09:14:39;9.07;;;2.00;;
59756;SDS011;45631;51.962;5.974;2024-03-23T09:17:07;8.20;;;2.13;;
59756;SDS011;45631;51.962;5.974;2024-03-23T09:19:33;8.15;;;1.70;;
59756;SDS011;45631;51.962;5.974;2024-03-23T09:22:04;14.73;;;2.58;;
59756;SDS011;45631;51.962;5.974;2024-03-23T09:24:30;8.60;;;2.28;;
59756;SDS011;45631;51.962;5.974;2024-03-23T09:26:57;7.78;;;1.58;;
59756;SDS011;45631;51.962;5.974;2024-03-23T09:29:23;6.60;;;1.25;;
59756;SDS011;45631;51.962;5.974;2024-03-23T09:31:52;5.40;;;1.52;;
59756;SDS011;45631;51.962;5.974;2024-03-23T09:34:18;11.45;;;1.77;;
59756;SDS011;45631;51.962;5.974;2024-03-23T09:36:45;7.75;;;1.80;;
59756;SDS011;45631;51.962;5.974;2024-03-23T09:39:13;10.10;;;2.10;;
59756;SDS011;45631;51.962;5.974;2024-03-23T09:41:44;10.60;;;1.83;;
59756;SDS011;45631;51.962;5.974;2024-03-23T09:44:10;8.32;;;1.80;;
59756;SDS011;45631;51.962;5.974;2024-03-23T09:46:37;12.93;;;2.47;;
59756;SDS011;45631;51.962;5.974;2024-03-23T09:49:06;8.77;;;2.30;;
59756;SDS011;45631;51.962;5.974;2024-03-23T09:51:35;7.78;;;1.73;;
59756;SDS011;45631;51.962;5.974;2024-03-23T09:54:02;10.82;;;2.40;;
59756;SDS011;45631;51.962;5.974;2024-03-23T09:56:29;9.95;;;2.10;;
59756;SDS011;45631;51.962;5.974;2024-03-23T09:59:02;12.48;;;4.15;;
59756;SDS011;45631;51.962;5.974;2024-03-23T10:01:29;14.00;;;2.55;;
59756;SDS011;45631;51.962;5.974;2024-03-23T10:03:55;11.82;;;2.17;;
59756;SDS011;45631;51.962;5.974;2024-03-23T10:06:24;8.98;;;1.95;;
59756;SDS011;45631;51.962;5.974;2024-03-23T10:08:51;8.40;;;2.33;;
59756;SDS011;45631;51.962;5.974;2024-03-23T10:11:19;9.75;;;1.80;;
59756;SDS011;45631;51.962;5.974;2024-03-23T10:13:46;10.55;;;1.63;;
59756;SDS011;45631;51.962;5.974;2024-03-23T10:16:20;9.93;;;1.83;;
59756;SDS011;45631;51.962;5.974;2024-03-23T10:18:48;9.40;;;1.70;;
59756;SDS011;45631;51.962;5.974;2024-03-23T10:21:15;14.85;;;2.08;;
59756;SDS011;45631;51.962;5.974;2024-03-23T10:23:44;9.63;;;1.95;;
59756;SDS011;45631;51.962;5.974;2024-03-23T10:26:12;8.88;;;1.63;;
59756;SDS011;45631;51.962;5.974;2024-03-23T10:28:52;4.45;;;1.23;;
59756;SDS011;45631;51.962;5.974;2024-03-23T10:31:20;8.30;;;1.45;;
59756;SDS011;45631;51.962;5.974;2024-03-23T10:33:47;9.43;;;1.50;;
59756;SDS011;45631;51.962;5.974;2024-03-23T10:36:14;8.98;;;2.00;;
59756;SDS011;45631;51.962;5.974;2024-03-23T10:38:40;8.48;;;1.40;;
59756;SDS011;45631;51.962;5.974;2024-03-23T10:41:09;4.63;;;1.33;;
59756;SDS011;45631;51.962;5.974;2024-03-23T10:43:36;6.97;;;1.35;;
59756;SDS011;45631;51.962;5.974;2024-03-23T10:46:04;8.40;;;1.88;;
59756;SDS011;45631;51.962;5.974;2024-03-23T10:48:31;11.55;;;1.77;;
59756;SDS011;45631;51.962;5.974;2024-03-23T10:50:59;7.18;;;1.60;;
59756;SDS011;45631;51.962;5.974;2024-03-23T10:53:26;9.50;;;2.20;;
59756;SDS011;45631;51.962;5.974;2024-03-23T10:55:56;8.15;;;2.08;;
59756;SDS011;45631;51.962;5.974;2024-03-23T10:58:26;8.70;;;2.13;;
59756;SDS011;45631;51.962;5.974;2024-03-23T11:00:55;9.93;;;1.73;;
59756;SDS011;45631;51.962;5.974;2024-03-23T11:03:31;8.35;;;2.10;;
59756;SDS011;45631;51.962;5.974;2024-03-23T11:06:03;10.65;;;2.30;;
59756;SDS011;45631;51.962;5.974;2024-03-23T11:08:31;11.63;;;2.08;;
59756;SDS011;45631;51.962;5.974;2024-03-23T11:11:11;10.48;;;2.05;;
59756;SDS011;45631;51.962;5.974;2024-03-23T11:13:40;11.07;;;2.03;;
59756;SDS011;45631;51.962;5.974;2024-03-23T11:16:17;9.38;;;1.88;;
59756;SDS011;45631;51.962;5.974;2024-03-23T11:18:47;9.45;;;1.80;;
59756;SDS011;45631;51.962;5.974;2024-03-23T11:24:14;7.82;;;1.67;;
59756;SDS011;45631;51.962;5.974;2024-03-23T11:26:41;10.30;;;1.88;;
59756;SDS011;45631;51.962;5.974;2024-03-23T11:29:12;9.48;;;2.13;;
59756;SDS011;45631;51.962;5.974;2024-03-23T11:31:45;7.70;;;1.80;;
59756;SDS011;45631;51.962;5.974;2024-03-23T11:34:12;7.22;;;1.70;;
59756;SDS011;45631;51.962;5.974;2024-03-23T11:36:39;6.47;;;1.58;;
59756;SDS011;45631;51.962;5.974;2024-03-23T11:39:11;7.15;;;2.05;;
59756;SDS011;45631;51.962;5.974;2024-03-23T11:41:47;7.10;;;1.70;;
59756;SDS011;45631;51.962;5.974;2024-03-23T11:44:16;9.48;;;1.60;;
59756;SDS011;45631;51.962;5.974;2024-03-23T11:46:44;9.02;;;2.00;;
59756;SDS011;45631;51.962;5.974;2024-03-23T11:49:20;8.27;;;1.70;;
59756;SDS011;45631;51.962;5.974;2024-03-23T11:51:48;12.77;;;2.22;;
59756;SDS011;45631;51.962;5.974;2024-03-23T11:54:15;8.55;;;1.92;;
59756;SDS011;45631;51.962;5.974;2024-03-23T11:56:55;7.57;;;1.52;;
59756;SDS011;45631;51.962;5.974;2024-03-23T11:59:36;6.15;;;1.42;;
59756;SDS011;45631;51.962;5.974;2024-03-23T12:02:07;9.48;;;2.03;;
59756;SDS011;45631;51.962;5.974;2024-03-23T12:04:35;8.18;;;1.58;;
59756;SDS011;45631;51.962;5.974;2024-03-23T12:07:10;9.25;;;1.63;;
59756;SDS011;45631;51.962;5.974;2024-03-23T12:09:37;7.55;;;1.67;;
59756;SDS011;45631;51.962;5.974;2024-03-23T12:12:08;7.03;;;1.30;;
59756;SDS011;45631;51.962;5.974;2024-03-23T12:14:37;6.50;;;1.70;;
59756;SDS011;45631;51.962;5.974;2024-03-23T12:17:08;6.18;;;1.40;;
59756;SDS011;45631;51.962;5.974;2024-03-23T12:19:35;6.60;;;1.52;;
59756;SDS011;45631;51.962;5.974;2024-03-23T12:22:03;10.23;;;2.30;;
59756;SDS011;45631;51.962;5.974;2024-03-23T12:24:29;8.70;;;1.83;;
59756;SDS011;45631;51.962;5.974;2024-03-23T12:26:59;9.70;;;1.58;;
59756;SDS011;45631;51.962;5.974;2024-03-23T12:29:29;11.10;;;1.75;;
59756;SDS011;45631;51.962;5.974;2024-03-23T12:32:00;7.20;;;1.50;;
59756;SDS011;45631;51.962;5.974;2024-03-23T12:34:27;7.00;;;2.22;;
59756;SDS011;45631;51.962;5.974;2024-03-23T12:36:58;9.25;;;2.20;;
59756;SDS011;45631;51.962;5.974;2024-03-23T12:39:24;8.57;;;1.95;;
59756;SDS011;45631;51.962;5.974;2024-03-23T12:41:51;7.40;;;1.92;;
59756;SDS011;45631;51.962;5.974;2024-03-23T12:44:18;10.43;;;1.98;;
59756;SDS011;45631;51.962;5.974;2024-03-23T12:46:46;10.68;;;2.05;;
59756;SDS011;45631;51.962;5.974;2024-03-23T12:49:13;8.75;;;1.42;;
59756;SDS011;45631;51.962;5.974;2024-03-23T12:51:42;11.30;;;1.70;;
59756;SDS011;45631;51.962;5.974;2024-03-23T12:54:14;9.70;;;1.67;;
59756;SDS011;45631;51.962;5.974;2024-03-23T12:56:41;8.00;;;1.60;;
59756;SDS011;45631;51.962;5.974;2024-03-23T12:59:07;8.10;;;1.80;;
59756;SDS011;45631;51.962;5.974;2024-03-23T13:01:34;10.18;;;1.95;;
59756;SDS011;45631;51.962;5.974;2024-03-23T13:04:00;8.30;;;1.50;;
59756;SDS011;45631;51.962;5.974;2024-03-23T13:06:29;6.38;;;1.50;;
59756;SDS011;45631;51.962;5.974;2024-03-23T13:08:59;6.80;;;1.77;;
59756;SDS011;45631;51.962;5.974;2024-03-23T13:11:26;7.00;;;1.52;;
59756;SDS011;45631;51.962;5.974;2024-03-23T13:13:53;6.78;;;1.40;;
59756;SDS011;45631;51.962;5.974;2024-03-23T13:16:20;9.05;;;1.48;;
59756;SDS011;45631;51.962;5.974;2024-03-23T13:18:46;9.15;;;1.80;;
59756;SDS011;45631;51.962;5.974;2024-03-23T13:21:13;6.65;;;1.35;;
59756;SDS011;45631;51.962;5.974;2024-03-23T13:23:41;6.25;;;1.50;;
59756;SDS011;45631;51.962;5.974;2024-03-23T13:26:09;6.85;;;1.73;;
59756;SDS011;45631;51.962;5.974;2024-03-23T13:28:35;8.02;;;1.50;;
59756;SDS011;45631;51.962;5.974;2024-03-23T13:31:02;9.40;;;1.73;;
59756;SDS011;45631;51.962;5.974;2024-03-23T13:33:43;6.30;;;1.30;;
59756;SDS011;45631;51.962;5.974;2024-03-23T13:36:10;8.73;;;1.83;;
59756;SDS011;45631;51.962;5.974;2024-03-23T13:38:36;7.68;;;1.60;;
59756;SDS011;45631;51.962;5.974;2024-03-23T13:41:04;10.75;;;2.13;;
59756;SDS011;45631;51.962;5.974;2024-03-23T13:43:32;9.13;;;1.60;;
59756;SDS011;45631;51.962;5.974;2024-03-23T13:45:59;8.63;;;1.50;;
59756;SDS011;45631;51.962;5.974;2024-03-23T13:48:27;7.53;;;1.52;;
59756;SDS011;45631;51.962;5.974;2024-03-23T13:50:57;8.85;;;1.98;;
59756;SDS011;45631;51.962;5.974;2024-03-23T13:53:25;7.57;;;1.88;;
59756;SDS011;45631;51.962;5.974;2024-03-23T13:55:51;8.65;;;1.50;;
59756;SDS011;45631;51.962;5.974;2024-03-23T13:58:20;7.20;;;1.65;;
59756;SDS011;45631;51.962;5.974;2024-03-23T14:00:46;8.77;;;1.60;;
59756;SDS011;45631;51.962;5.974;2024-03-23T14:03:13;8.63;;;2.15;;
59756;SDS011;45631;51.962;5.974;2024-03-23T14:05:40;9.07;;;1.85;;
59756;SDS011;45631;51.962;5.974;2024-03-23T14:08:08;6.57;;;1.60;;
59756;SDS011;45631;51.962;5.974;2024-03-23T14:10:40;8.50;;;1.50;;
59756;SDS011;45631;51.962;5.974;2024-03-23T14:13:08;9.23;;;1.70;;
59756;SDS011;45631;51.962;5.974;2024-03-23T14:15:38;9.43;;;1.88;;
59756;SDS011;45631;51.962;5.974;2024-03-23T14:18:06;8.63;;;1.80;;
59756;SDS011;45631;51.962;5.974;2024-03-23T14:20:32;7.22;;;1.50;;
59756;SDS011;45631;51.962;5.974;2024-03-23T14:22:59;10.27;;;1.73;;
59756;SDS011;45631;51.962;5.974;2024-03-23T14:25:26;9.77;;;1.77;;
59756;SDS011;45631;51.962;5.974;2024-03-23T14:27:54;8.63;;;1.77;;
59756;SDS011;45631;51.962;5.974;2024-03-23T14:30:21;8.85;;;1.85;;
59756;SDS011;45631;51.962;5.974;2024-03-23T14:32:49;7.78;;;1.60;;
59756;SDS011;45631;51.962;5.974;2024-03-23T14:35:16;8.90;;;1.83;;
59756;SDS011;45631;51.962;5.974;2024-03-23T14:37:44;11.07;;;2.10;;
59756;SDS011;45631;51.962;5.974;2024-03-23T14:40:12;10.07;;;1.70;;
59756;SDS011;45631;51.962;5.974;2024-03-23T14:42:39;7.15;;;1.58;;
59756;SDS011;45631;51.962;5.974;2024-03-23T14:45:07;8.80;;;1.90;;
59756;SDS011;45631;51.962;5.974;2024-03-23T14:47:34;8.45;;;1.45;;
59756;SDS011;45631;51.962;5.974;2024-03-23T14:50:02;6.40;;;1.35;;
59756;SDS011;45631;51.962;5.974;2024-03-23T14:52:29;6.00;;;1.27;;
59756;SDS011;45631;51.962;5.974;2024-03-23T14:54:56;6.78;;;1.48;;
59756;SDS011;45631;51.962;5.974;2024-03-23T14:57:22;9.23;;;1.40;;
59756;SDS011;45631;51.962;5.974;2024-03-23T14:59:49;7.18;;;1.48;;
59756;SDS011;45631;51.962;5.974;2024-03-23T15:02:15;8.35;;;1.70;;
59756;SDS011;45631;51.962;5.974;2024-03-23T15:04:42;5.35;;;1.52;;
59756;SDS011;45631;51.962;5.974;2024-03-23T15:07:10;8.32;;;1.80;;
59756;SDS011;45631;51.962;5.974;2024-03-23T15:09:37;9.38;;;1.77;;
59756;SDS011;45631;51.962;5.974;2024-03-23T15:12:03;7.18;;;1.60;;
59756;SDS011;45631;51.962;5.974;2024-03-23T15:14:32;8.60;;;2.00;;
59756;SDS011;45631;51.962;5.974;2024-03-23T15:17:00;8.45;;;1.20;;
59756;SDS011;45631;51.962;5.974;2024-03-23T15:19:30;8.85;;;1.65;;
59756;SDS011;45631;51.962;5.974;2024-03-23T15:21:56;8.10;;;1.45;;
59756;SDS011;45631;51.962;5.974;2024-03-23T15:24:24;8.10;;;1.80;;
59756;SDS011;45631;51.962;5.974;2024-03-23T15:26:51;9.02;;;1.40;;
59756;SDS011;45631;51.962;5.974;2024-03-23T15:29:21;7.20;;;1.52;;
59756;SDS011;45631;51.962;5.974;2024-03-23T15:31:48;10.00;;;1.73;;
59756;SDS011;45631;51.962;5.974;2024-03-23T15:34:18;10.00;;;1.73;;
59756;SDS011;45631;51.962;5.974;2024-03-23T15:36:47;7.63;;;1.67;;
59756;SDS011;45631;51.962;5.974;2024-03-23T15:39:14;5.78;;;1.45;;
59756;SDS011;45631;51.962;5.974;2024-03-23T15:41:42;6.97;;;1.80;;